Silver Shadow — C6FN6 — position and weather

sailwx.info

Track history (hours):
 
Tides and Currents Weather Stations Pressure Air Temp Water Temp Dewpoint Dewpoint Depression Visibility Wind Speed Wind Dir Waves Ship Positions

Silver Shadow

Operator: V Ships Leisure SAM

Last reported at 2016-Jul-27 12:04 UTC. Time now 2016-Jul-27 21:08 UTC.
Position N 59°17' W 139°41'.

Length 186 m; draft 6.1 m.

Type: Ship. MMSI: 308628000.

Date/timePositionNaut miles runAvg speedWind from/ knotsBaromVisibWave heightAir tempDewpointWater temp
2016-Jul-27 12:04N 59°17' W 139°41'120 4.3
2016-Jul-26 08:33N 58°18' W 136°20'1616.0
2016-Jul-26 07:34N 58°19' W 135°50'1616.4
2016-Jul-26 06:33N 58°13' W 135°21'  
2016-Jul-22 18:32N 51°04' W 128°04'1414.2
2016-Jul-22 17:33N 50°58' W 127°44'1212.4
2016-Jul-22 16:34N 50°50' W 127°28'1312.4
2016-Jul-22 15:32N 50°45' W 127°10'1212.4
2016-Jul-22 14:33N 50°41' W 126°52'5811.7
2016-Jul-22 09:33N 50°20' W 125°26'1313.4
2016-Jul-22 08:33N 50°07' W 125°20'1010.0
2016-Jul-22 07:33N 49°59' W 125°11'2612.9
2016-Jul-22 05:33N 49°41' W 124°43'1414.0
2016-Jul-22 04:33N 49°30' W 124°29'1514.9
2016-Jul-22 03:33N 49°24' W 124°08'1615.5
2016-Jul-22 02:33N 49°21' W 123°45'1616.3
2016-Jul-22 01:33N 49°19' W 123°20'9 8.7
2016-Jul-22 00:32N 49°17' W 123°07'0 0.0
2016-Jul-21 23:32N 49°17' W 123°07'0 0.0
2016-Jul-21 22:32N 49°17' W 123°07'0 0.0
2016-Jul-21 21:32N 49°17' W 123°07'0 0.0
2016-Jul-21 20:32N 49°17' W 123°07'0 0.0
2016-Jul-21 19:31N 49°17' W 123°07'0 0.0
2016-Jul-21 15:05N 49°17' W 123°07'2 3.2
2016-Jul-21 14:30N 49°19' W 123°08'1616.1
2016-Jul-21 13:31N 49°19' W 123°33'1717.9
2016-Jul-21 12:33N 49°22' W 123°59'1817.6
2016-Jul-21 11:33N 49°27' W 124°25'1817.9
2016-Jul-21 10:33N 49°40' W 124°44'1817.8
2016-Jul-21 09:33N 49°53' W 125°03'1717.1
2016-Jul-21 08:33N 50°07' W 125°19'7 6.6
2016-Jul-21 07:34N 50°13' W 125°23'1410.5
2016-Jul-21 06:11N 50°22' W 125°40'3312.1
2016-Jul-21 03:26N 50°30' W 126°31'1214.1
2016-Jul-21 02:33N 50°37' W 126°46'1817.9
2016-Jul-21 01:33N 50°46' W 127°11'1817.6
2016-Jul-21 00:33N 50°53' W 127°36'1514.8
2016-Jul-20 23:34N 51°01' W 127°56'  
Track history (hours):
 
Tides and Currents Weather Stations Pressure Air Temp Water Temp Dewpoint Dewpoint Depression Visibility Wind Speed Wind Dir Waves Ship Positions

Silver Shadow

Operator: V Ships Leisure SAM

Last reported at 2016-Jul-27 12:04 UTC. Time now 2016-Jul-27 21:08 UTC.
Position N 59°17' W 139°41'.

Length 186 m; draft 6.1 m.

Type: Ship. MMSI: 308628000.

Date/timePositionNaut miles runAvg speedWind from/ knotsBaromVisibWave heightAir tempDewpointWater temp
2016-Jul-27 12:04N 59°17' W 139°41'120 4.3
2016-Jul-26 08:33N 58°18' W 136°20'1616.0
2016-Jul-26 07:34N 58°19' W 135°50'1616.4
2016-Jul-26 06:33N 58°13' W 135°21'  
2016-Jul-22 18:32N 51°04' W 128°04'1414.2
2016-Jul-22 17:33N 50°58' W 127°44'1212.4
2016-Jul-22 16:34N 50°50' W 127°28'1312.4
2016-Jul-22 15:32N 50°45' W 127°10'1212.4
2016-Jul-22 14:33N 50°41' W 126°52'5811.7
2016-Jul-22 09:33N 50°20' W 125°26'1313.4
2016-Jul-22 08:33N 50°07' W 125°20'1010.0
2016-Jul-22 07:33N 49°59' W 125°11'2612.9
2016-Jul-22 05:33N 49°41' W 124°43'1414.0
2016-Jul-22 04:33N 49°30' W 124°29'1514.9
2016-Jul-22 03:33N 49°24' W 124°08'1615.5
2016-Jul-22 02:33N 49°21' W 123°45'1616.3
2016-Jul-22 01:33N 49°19' W 123°20'9 8.7
2016-Jul-22 00:32N 49°17' W 123°07'0 0.0
2016-Jul-21 23:32N 49°17' W 123°07'0 0.0
2016-Jul-21 22:32N 49°17' W 123°07'0 0.0
2016-Jul-21 21:32N 49°17' W 123°07'0 0.0
2016-Jul-21 20:32N 49°17' W 123°07'0 0.0
2016-Jul-21 19:31N 49°17' W 123°07'0 0.0
2016-Jul-21 15:05N 49°17' W 123°07'2 3.2
2016-Jul-21 14:30N 49°19' W 123°08'1616.1
2016-Jul-21 13:31N 49°19' W 123°33'1717.9
2016-Jul-21 12:33N 49°22' W 123°59'1817.6
2016-Jul-21 11:33N 49°27' W 124°25'1817.9
2016-Jul-21 10:33N 49°40' W 124°44'1817.8
2016-Jul-21 09:33N 49°53' W 125°03'1717.1
2016-Jul-21 08:33N 50°07' W 125°19'7 6.6
2016-Jul-21 07:34N 50°13' W 125°23'1410.5
2016-Jul-21 06:11N 50°22' W 125°40'3312.1
2016-Jul-21 03:26N 50°30' W 126°31'1214.1
2016-Jul-21 02:33N 50°37' W 126°46'1817.9
2016-Jul-21 01:33N 50°46' W 127°11'1817.6
2016-Jul-21 00:33N 50°53' W 127°36'1514.8
2016-Jul-20 23:34N 51°01' W 127°56'  

Dump ship's entire track history